sensor_id;sensor_type;location;lat;lon;timestamp;P1;durP1;ratioP1;P2;durP2;ratioP2
6424;SDS011;12193;42.642;23.384;2023-04-30T00:00:54;16.07;;;7.83;;
6424;SDS011;12193;42.642;23.384;2023-04-30T00:03:24;16.47;;;8.00;;
6424;SDS011;12193;42.642;23.384;2023-04-30T00:05:53;18.03;;;7.70;;
6424;SDS011;12193;42.642;23.384;2023-04-30T02:58:25;5.27;;;3.83;;
6424;SDS011;12193;42.642;23.384;2023-04-30T03:00:55;6.90;;;4.50;;
6424;SDS011;12193;42.642;23.384;2023-04-30T03:03:24;7.27;;;4.03;;
6424;SDS011;12193;42.642;23.384;2023-04-30T03:05:53;5.47;;;3.63;;
6424;SDS011;12193;42.642;23.384;2023-04-30T03:08:24;6.87;;;4.27;;
6424;SDS011;12193;42.642;23.384;2023-04-30T03:10:53;6.73;;;4.30;;
6424;SDS011;12193;42.642;23.384;2023-04-30T03:13:25;6.67;;;4.17;;
6424;SDS011;12193;42.642;23.384;2023-04-30T03:15:56;6.63;;;4.10;;
6424;SDS011;12193;42.642;23.384;2023-04-30T03:18:27;7.90;;;4.27;;
6424;SDS011;12193;42.642;23.384;2023-04-30T03:20:56;7.87;;;4.27;;
6424;SDS011;12193;42.642;23.384;2023-04-30T03:23:26;6.40;;;4.30;;
6424;SDS011;12193;42.642;23.384;2023-04-30T03:25:55;7.37;;;4.83;;
6424;SDS011;12193;42.642;23.384;2023-04-30T03:28:27;8.40;;;4.60;;
6424;SDS011;12193;42.642;23.384;2023-04-30T03:30:57;7.17;;;4.73;;
6424;SDS011;12193;42.642;23.384;2023-04-30T03:33:29;8.07;;;4.70;;
6424;SDS011;12193;42.642;23.384;2023-04-30T03:35:59;9.30;;;4.53;;
6424;SDS011;12193;42.642;23.384;2023-04-30T03:38:28;7.70;;;4.20;;
6424;SDS011;12193;42.642;23.384;2023-04-30T03:40:57;10.90;;;4.57;;
6424;SDS011;12193;42.642;23.384;2023-04-30T03:43:30;7.07;;;4.90;;
6424;SDS011;12193;42.642;23.384;2023-04-30T03:45:59;7.10;;;4.23;;
6424;SDS011;12193;42.642;23.384;2023-04-30T03:48:28;6.90;;;4.10;;
6424;SDS011;12193;42.642;23.384;2023-04-30T03:50:58;8.87;;;5.00;;
6424;SDS011;12193;42.642;23.384;2023-04-30T03:53:27;6.77;;;4.13;;
6424;SDS011;12193;42.642;23.384;2023-04-30T03:55:57;8.07;;;3.87;;
6424;SDS011;12193;42.642;23.384;2023-04-30T03:58:29;6.57;;;4.00;;
6424;SDS011;12193;42.642;23.384;2023-04-30T04:00:58;6.70;;;4.33;;
6424;SDS011;12193;42.642;23.384;2023-04-30T04:03:28;8.70;;;5.23;;
6424;SDS011;12193;42.642;23.384;2023-04-30T04:05:58;4.93;;;4.17;;
6424;SDS011;12193;42.642;23.384;2023-04-30T04:08:27;8.03;;;4.40;;
6424;SDS011;12193;42.642;23.384;2023-04-30T04:10:57;8.63;;;5.17;;
6424;SDS011;12193;42.642;23.384;2023-04-30T04:13:29;10.00;;;5.53;;
6424;SDS011;12193;42.642;23.384;2023-04-30T04:15:58;6.73;;;4.60;;
6424;SDS011;12193;42.642;23.384;2023-04-30T04:18:28;7.17;;;4.73;;
6424;SDS011;12193;42.642;23.384;2023-04-30T04:20:57;8.60;;;4.87;;
6424;SDS011;12193;42.642;23.384;2023-04-30T04:23:26;8.53;;;5.03;;
6424;SDS011;12193;42.642;23.384;2023-04-30T04:25:56;9.53;;;5.27;;
6424;SDS011;12193;42.642;23.384;2023-04-30T04:28:28;12.53;;;4.90;;
6424;SDS011;12193;42.642;23.384;2023-04-30T04:30:58;9.53;;;5.10;;
6424;SDS011;12193;42.642;23.384;2023-04-30T04:33:27;9.07;;;4.63;;
6424;SDS011;12193;42.642;23.384;2023-04-30T04:35:58;7.83;;;5.50;;
6424;SDS011;12193;42.642;23.384;2023-04-30T04:38:28;8.40;;;5.00;;
6424;SDS011;12193;42.642;23.384;2023-04-30T04:40:57;10.10;;;5.47;;
6424;SDS011;12193;42.642;23.384;2023-04-30T04:43:29;9.77;;;5.50;;
6424;SDS011;12193;42.642;23.384;2023-04-30T04:45:59;6.07;;;4.67;;
6424;SDS011;12193;42.642;23.384;2023-04-30T04:48:29;11.23;;;5.80;;
6424;SDS011;12193;42.642;23.384;2023-04-30T04:50:58;8.83;;;5.70;;
6424;SDS011;12193;42.642;23.384;2023-04-30T04:53:28;9.97;;;5.17;;
6424;SDS011;12193;42.642;23.384;2023-04-30T04:55:57;11.13;;;5.83;;
6424;SDS011;12193;42.642;23.384;2023-04-30T04:58:29;10.20;;;5.33;;
6424;SDS011;12193;42.642;23.384;2023-04-30T05:00:59;10.87;;;5.40;;
6424;SDS011;12193;42.642;23.384;2023-04-30T05:03:29;11.90;;;5.70;;
6424;SDS011;12193;42.642;23.384;2023-04-30T05:06:01;8.00;;;5.70;;
6424;SDS011;12193;42.642;23.384;2023-04-30T05:08:31;9.87;;;6.27;;
6424;SDS011;12193;42.642;23.384;2023-04-30T05:11:01;9.20;;;6.33;;
6424;SDS011;12193;42.642;23.384;2023-04-30T05:13:32;12.97;;;6.13;;
6424;SDS011;12193;42.642;23.384;2023-04-30T05:16:02;11.57;;;6.30;;
6424;SDS011;12193;42.642;23.384;2023-04-30T05:18:32;10.40;;;6.53;;
6424;SDS011;12193;42.642;23.384;2023-04-30T05:21:01;11.07;;;6.40;;
6424;SDS011;12193;42.642;23.384;2023-04-30T05:23:31;11.53;;;6.13;;
6424;SDS011;12193;42.642;23.384;2023-04-30T05:26:01;10.30;;;4.97;;
6424;SDS011;12193;42.642;23.384;2023-04-30T05:28:33;11.30;;;5.47;;
6424;SDS011;12193;42.642;23.384;2023-04-30T05:31:02;8.00;;;5.10;;
6424;SDS011;12193;42.642;23.384;2023-04-30T05:33:32;12.30;;;5.30;;
6424;SDS011;12193;42.642;23.384;2023-04-30T05:36:02;8.27;;;5.20;;
6424;SDS011;12193;42.642;23.384;2023-04-30T05:38:31;9.53;;;5.37;;
6424;SDS011;12193;42.642;23.384;2023-04-30T05:41:00;8.47;;;5.63;;
6424;SDS011;12193;42.642;23.384;2023-04-30T05:43:30;10.27;;;5.90;;
6424;SDS011;12193;42.642;23.384;2023-04-30T05:46:02;8.90;;;5.57;;
6424;SDS011;12193;42.642;23.384;2023-04-30T05:48:31;9.83;;;5.37;;
6424;SDS011;12193;42.642;23.384;2023-04-30T05:51:01;8.27;;;5.50;;
6424;SDS011;12193;42.642;23.384;2023-04-30T05:53:31;9.83;;;5.80;;
6424;SDS011;12193;42.642;23.384;2023-04-30T05:56:00;8.37;;;6.07;;
6424;SDS011;12193;42.642;23.384;2023-04-30T05:58:33;8.90;;;6.17;;
6424;SDS011;12193;42.642;23.384;2023-04-30T06:01:02;9.30;;;6.13;;
6424;SDS011;12193;42.642;23.384;2023-04-30T06:03:35;11.20;;;6.07;;
6424;SDS011;12193;42.642;23.384;2023-04-30T06:06:04;12.07;;;6.67;;
6424;SDS011;12193;42.642;23.384;2023-04-30T06:08:34;13.27;;;6.87;;
6424;SDS011;12193;42.642;23.384;2023-04-30T06:11:06;9.60;;;5.83;;
6424;SDS011;12193;42.642;23.384;2023-04-30T06:13:39;9.47;;;6.13;;
6424;SDS011;12193;42.642;23.384;2023-04-30T06:16:08;11.83;;;6.47;;
6424;SDS011;12193;42.642;23.384;2023-04-30T06:18:38;12.40;;;6.67;;
6424;SDS011;12193;42.642;23.384;2023-04-30T06:21:07;10.90;;;6.90;;
6424;SDS011;12193;42.642;23.384;2023-04-30T06:23:37;10.17;;;6.77;;
6424;SDS011;12193;42.642;23.384;2023-04-30T06:26:06;11.70;;;6.87;;
6424;SDS011;12193;42.642;23.384;2023-04-30T06:28:38;12.13;;;6.90;;
6424;SDS011;12193;42.642;23.384;2023-04-30T06:31:07;11.37;;;6.90;;
6424;SDS011;12193;42.642;23.384;2023-04-30T06:33:37;14.70;;;7.13;;
6424;SDS011;12193;42.642;23.384;2023-04-30T06:36:06;15.73;;;7.40;;
6424;SDS011;12193;42.642;23.384;2023-04-30T06:38:35;13.07;;;7.63;;
6424;SDS011;12193;42.642;23.384;2023-04-30T06:41:05;13.03;;;7.43;;
6424;SDS011;12193;42.642;23.384;2023-04-30T06:43:34;13.17;;;7.07;;
6424;SDS011;12193;42.642;23.384;2023-04-30T06:46:06;14.00;;;7.80;;
6424;SDS011;12193;42.642;23.384;2023-04-30T06:48:35;9.77;;;7.20;;
6424;SDS011;12193;42.642;23.384;2023-04-30T06:51:04;14.37;;;7.07;;
6424;SDS011;12193;42.642;23.384;2023-04-30T06:53:34;15.03;;;7.43;;
6424;SDS011;12193;42.642;23.384;2023-04-30T06:56:03;14.33;;;7.47;;
6424;SDS011;12193;42.642;23.384;2023-04-30T06:58:33;19.10;;;8.27;;
6424;SDS011;12193;42.642;23.384;2023-04-30T07:01:03;12.10;;;7.90;;
6424;SDS011;12193;42.642;23.384;2023-04-30T07:03:35;15.67;;;8.30;;
6424;SDS011;12193;42.642;23.384;2023-04-30T07:06:04;17.57;;;8.90;;
6424;SDS011;12193;42.642;23.384;2023-04-30T07:08:34;13.87;;;9.30;;
6424;SDS011;12193;42.642;23.384;2023-04-30T07:11:06;12.17;;;8.37;;
6424;SDS011;12193;42.642;23.384;2023-04-30T07:13:36;16.47;;;10.10;;
6424;SDS011;12193;42.642;23.384;2023-04-30T07:16:08;17.43;;;8.87;;
6424;SDS011;12193;42.642;23.384;2023-04-30T07:18:39;17.43;;;10.10;;
6424;SDS011;12193;42.642;23.384;2023-04-30T07:21:08;18.37;;;10.33;;
6424;SDS011;12193;42.642;23.384;2023-04-30T07:23:37;12.90;;;9.13;;
6424;SDS011;12193;42.642;23.384;2023-04-30T07:26:07;18.37;;;10.27;;
6424;SDS011;12193;42.642;23.384;2023-04-30T07:28:37;17.10;;;9.63;;
6424;SDS011;12193;42.642;23.384;2023-04-30T07:31:09;19.83;;;11.13;;
6424;SDS011;12193;42.642;23.384;2023-04-30T07:33:38;20.33;;;11.60;;
6424;SDS011;12193;42.642;23.384;2023-04-30T07:36:08;19.47;;;11.57;;
6424;SDS011;12193;42.642;23.384;2023-04-30T07:38:37;19.57;;;11.50;;
6424;SDS011;12193;42.642;23.384;2023-04-30T07:41:07;21.80;;;10.80;;
6424;SDS011;12193;42.642;23.384;2023-04-30T07:43:36;19.67;;;11.70;;
6424;SDS011;12193;42.642;23.384;2023-04-30T07:46:09;21.00;;;11.60;;
6424;SDS011;12193;42.642;23.384;2023-04-30T07:48:38;20.83;;;11.47;;
6424;SDS011;12193;42.642;23.384;2023-04-30T07:51:08;19.23;;;11.00;;
6424;SDS011;12193;42.642;23.384;2023-04-30T07:53:37;17.37;;;10.97;;
6424;SDS011;12193;42.642;23.384;2023-04-30T07:56:06;17.70;;;10.53;;
6424;SDS011;12193;42.642;23.384;2023-04-30T07:58:36;19.27;;;10.67;;
6424;SDS011;12193;42.642;23.384;2023-04-30T08:01:05;20.40;;;11.33;;
6424;SDS011;12193;42.642;23.384;2023-04-30T08:03:37;18.50;;;10.97;;
6424;SDS011;12193;42.642;23.384;2023-04-30T08:06:06;19.80;;;10.10;;
6424;SDS011;12193;42.642;23.384;2023-04-30T08:08:36;20.93;;;9.90;;
6424;SDS011;12193;42.642;23.384;2023-04-30T08:11:05;16.13;;;9.07;;
6424;SDS011;12193;42.642;23.384;2023-04-30T08:13:34;15.07;;;8.67;;
6424;SDS011;12193;42.642;23.384;2023-04-30T08:16:04;17.37;;;9.10;;
6424;SDS011;12193;42.642;23.384;2023-04-30T08:18:33;15.50;;;8.40;;
6424;SDS011;12193;42.642;23.384;2023-04-30T08:21:09;13.17;;;8.47;;
6424;SDS011;12193;42.642;23.384;2023-04-30T08:23:39;11.30;;;7.50;;
6424;SDS011;12193;42.642;23.384;2023-04-30T08:26:08;9.27;;;6.63;;
6424;SDS011;12193;42.642;23.384;2023-04-30T08:28:37;8.67;;;6.30;;
6424;SDS011;12193;42.642;23.384;2023-04-30T08:31:07;14.17;;;6.50;;
6424;SDS011;12193;42.642;23.384;2023-04-30T08:33:39;14.00;;;6.87;;
6424;SDS011;12193;42.642;23.384;2023-04-30T08:36:08;11.00;;;6.17;;
6424;SDS011;12193;42.642;23.384;2023-04-30T08:38:38;9.03;;;5.20;;
6424;SDS011;12193;42.642;23.384;2023-04-30T08:41:08;8.40;;;5.20;;
6424;SDS011;12193;42.642;23.384;2023-04-30T08:43:40;7.57;;;5.17;;
6424;SDS011;12193;42.642;23.384;2023-04-30T08:46:10;9.83;;;5.77;;
6424;SDS011;12193;42.642;23.384;2023-04-30T08:48:45;11.13;;;5.70;;
6424;SDS011;12193;42.642;23.384;2023-04-30T08:51:14;9.30;;;5.27;;
6424;SDS011;12193;42.642;23.384;2023-04-30T08:53:44;7.70;;;4.93;;
6424;SDS011;12193;42.642;23.384;2023-04-30T08:56:15;7.83;;;5.37;;
6424;SDS011;12193;42.642;23.384;2023-04-30T08:58:44;20.20;;;14.30;;
6424;SDS011;12193;42.642;23.384;2023-04-30T09:01:14;11.07;;;6.00;;
6424;SDS011;12193;42.642;23.384;2023-04-30T09:03:46;7.43;;;5.70;;
6424;SDS011;12193;42.642;23.384;2023-04-30T09:06:16;8.87;;;5.67;;
6424;SDS011;12193;42.642;23.384;2023-04-30T09:08:46;8.07;;;5.80;;
6424;SDS011;12193;42.642;23.384;2023-04-30T09:11:21;8.03;;;5.20;;
6424;SDS011;12193;42.642;23.384;2023-04-30T09:13:53;7.40;;;5.03;;
6424;SDS011;12193;42.642;23.384;2023-04-30T09:16:23;6.30;;;4.70;;
6424;SDS011;12193;42.642;23.384;2023-04-30T09:18:57;8.90;;;4.40;;
6424;SDS011;12193;42.642;23.384;2023-04-30T09:21:31;8.20;;;4.90;;
6424;SDS011;12193;42.642;23.384;2023-04-30T09:24:02;5.10;;;4.43;;
6424;SDS011;12193;42.642;23.384;2023-04-30T09:26:33;5.87;;;4.50;;
6424;SDS011;12193;42.642;23.384;2023-04-30T09:29:04;6.93;;;4.37;;
6424;SDS011;12193;42.642;23.384;2023-04-30T09:31:35;7.53;;;4.23;;
6424;SDS011;12193;42.642;23.384;2023-04-30T09:34:08;7.60;;;4.53;;
6424;SDS011;12193;42.642;23.384;2023-04-30T09:36:50;5.80;;;4.67;;
6424;SDS011;12193;42.642;23.384;2023-04-30T09:39:21;8.83;;;5.10;;
6424;SDS011;12193;42.642;23.384;2023-04-30T09:41:50;6.53;;;4.53;;
6424;SDS011;12193;42.642;23.384;2023-04-30T09:44:26;7.87;;;4.63;;
6424;SDS011;12193;42.642;23.384;2023-04-30T09:46:56;5.70;;;4.63;;
6424;SDS011;12193;42.642;23.384;2023-04-30T09:49:29;7.00;;;4.63;;
6424;SDS011;12193;42.642;23.384;2023-04-30T09:51:58;8.10;;;4.70;;
6424;SDS011;12193;42.642;23.384;2023-04-30T09:54:30;6.23;;;4.27;;
6424;SDS011;12193;42.642;23.384;2023-04-30T09:57:00;9.63;;;4.67;;
6424;SDS011;12193;42.642;23.384;2023-04-30T09:59:31;6.37;;;4.30;;
6424;SDS011;12193;42.642;23.384;2023-04-30T10:02:02;6.03;;;4.10;;
6424;SDS011;12193;42.642;23.384;2023-04-30T10:04:36;6.00;;;4.40;;
6424;SDS011;12193;42.642;23.384;2023-04-30T10:07:08;6.17;;;4.43;;
6424;SDS011;12193;42.642;23.384;2023-04-30T10:09:41;5.93;;;4.40;;
6424;SDS011;12193;42.642;23.384;2023-04-30T10:12:25;6.07;;;4.63;;
6424;SDS011;12193;42.642;23.384;2023-04-30T10:15:03;8.00;;;4.90;;
6424;SDS011;12193;42.642;23.384;2023-04-30T10:17:38;7.63;;;4.60;;
6424;SDS011;12193;42.642;23.384;2023-04-30T10:20:12;8.23;;;4.43;;
6424;SDS011;12193;42.642;23.384;2023-04-30T10:22:42;7.60;;;4.60;;
6424;SDS011;12193;42.642;23.384;2023-04-30T10:25:12;4.90;;;3.90;;
6424;SDS011;12193;42.642;23.384;2023-04-30T10:27:41;6.33;;;4.10;;
6424;SDS011;12193;42.642;23.384;2023-04-30T10:30:11;6.33;;;3.90;;
6424;SDS011;12193;42.642;23.384;2023-04-30T10:32:43;6.03;;;4.17;;
6424;SDS011;12193;42.642;23.384;2023-04-30T10:35:23;5.37;;;4.50;;
6424;SDS011;12193;42.642;23.384;2023-04-30T10:37:56;6.73;;;3.67;;
6424;SDS011;12193;42.642;23.384;2023-04-30T10:40:34;5.57;;;3.83;;
6424;SDS011;12193;42.642;23.384;2023-04-30T10:43:04;7.83;;;4.07;;
6424;SDS011;12193;42.642;23.384;2023-04-30T10:45:33;7.17;;;4.30;;
6424;SDS011;12193;42.642;23.384;2023-04-30T10:48:04;9.17;;;5.20;;
6424;SDS011;12193;42.642;23.384;2023-04-30T10:50:41;6.90;;;5.07;;
6424;SDS011;12193;42.642;23.384;2023-04-30T10:53:15;6.03;;;4.93;;
6424;SDS011;12193;42.642;23.384;2023-04-30T10:55:52;6.80;;;4.90;;
6424;SDS011;12193;42.642;23.384;2023-04-30T10:58:25;9.40;;;5.60;;
6424;SDS011;12193;42.642;23.384;2023-04-30T11:00:59;7.60;;;5.10;;
6424;SDS011;12193;42.642;23.384;2023-04-30T11:03:29;7.83;;;5.80;;
6424;SDS011;12193;42.642;23.384;2023-04-30T11:06:02;7.20;;;4.57;;
6424;SDS011;12193;42.642;23.384;2023-04-30T11:08:38;5.77;;;4.40;;
6424;SDS011;12193;42.642;23.384;2023-04-30T11:11:11;5.23;;;4.00;;
6424;SDS011;12193;42.642;23.384;2023-04-30T11:13:46;5.03;;;4.23;;
6424;SDS011;12193;42.642;23.384;2023-04-30T11:16:16;5.33;;;4.13;;
6424;SDS011;12193;42.642;23.384;2023-04-30T11:18:46;6.77;;;4.13;;
6424;SDS011;12193;42.642;23.384;2023-04-30T11:21:21;4.40;;;4.00;;
6424;SDS011;12193;42.642;23.384;2023-04-30T11:23:52;4.77;;;4.23;;
6424;SDS011;12193;42.642;23.384;2023-04-30T11:26:40;4.53;;;3.87;;
6424;SDS011;12193;42.642;23.384;2023-04-30T11:29:33;7.20;;;4.47;;
6424;SDS011;12193;42.642;23.384;2023-04-30T11:32:03;4.63;;;3.90;;
6424;SDS011;12193;42.642;23.384;2023-04-30T11:34:34;5.37;;;3.60;;
6424;SDS011;12193;42.642;23.384;2023-04-30T11:37:06;4.53;;;3.50;;
6424;SDS011;12193;42.642;23.384;2023-04-30T11:39:39;4.77;;;3.40;;
6424;SDS011;12193;42.642;23.384;2023-04-30T11:42:14;7.23;;;3.80;;
6424;SDS011;12193;42.642;23.384;2023-04-30T11:44:44;3.80;;;3.20;;
6424;SDS011;12193;42.642;23.384;2023-04-30T11:47:13;5.67;;;3.43;;
6424;SDS011;12193;42.642;23.384;2023-04-30T11:49:43;4.33;;;3.37;;
6424;SDS011;12193;42.642;23.384;2023-04-30T11:52:19;5.40;;;3.30;;
6424;SDS011;12193;42.642;23.384;2023-04-30T11:54:48;4.13;;;3.17;;
6424;SDS011;12193;42.642;23.384;2023-04-30T11:57:18;3.67;;;3.23;;
6424;SDS011;12193;42.642;23.384;2023-04-30T11:59:47;3.70;;;3.20;;
6424;SDS011;12193;42.642;23.384;2023-04-30T12:02:16;3.90;;;3.30;;
6424;SDS011;12193;42.642;23.384;2023-04-30T12:04:46;4.53;;;3.13;;
6424;SDS011;12193;42.642;23.384;2023-04-30T12:07:18;4.10;;;3.63;;
6424;SDS011;12193;42.642;23.384;2023-04-30T12:09:51;3.97;;;3.33;;
6424;SDS011;12193;42.642;23.384;2023-04-30T12:12:27;4.17;;;2.93;;
6424;SDS011;12193;42.642;23.384;2023-04-30T12:14:56;4.40;;;3.20;;
6424;SDS011;12193;42.642;23.384;2023-04-30T12:17:32;4.27;;;3.40;;
6424;SDS011;12193;42.642;23.384;2023-04-30T12:20:02;4.70;;;3.00;;
6424;SDS011;12193;42.642;23.384;2023-04-30T12:22:38;3.93;;;3.00;;
6424;SDS011;12193;42.642;23.384;2023-04-30T12:25:10;3.87;;;3.27;;
6424;SDS011;12193;42.642;23.384;2023-04-30T12:27:44;4.00;;;3.10;;
6424;SDS011;12193;42.642;23.384;2023-04-30T12:30:14;3.53;;;3.23;;
6424;SDS011;12193;42.642;23.384;2023-04-30T12:32:48;4.00;;;3.07;;
6424;SDS011;12193;42.642;23.384;2023-04-30T12:35:19;3.93;;;3.00;;
6424;SDS011;12193;42.642;23.384;2023-04-30T12:37:53;4.57;;;3.43;;
6424;SDS011;12193;42.642;23.384;2023-04-30T12:40:30;4.43;;;3.60;;
6424;SDS011;12193;42.642;23.384;2023-04-30T12:43:00;4.30;;;3.53;;
6424;SDS011;12193;42.642;23.384;2023-04-30T12:45:45;5.63;;;3.83;;
6424;SDS011;12193;42.642;23.384;2023-04-30T12:48:17;5.30;;;3.70;;
6424;SDS011;12193;42.642;23.384;2023-04-30T12:50:49;5.43;;;3.70;;
6424;SDS011;12193;42.642;23.384;2023-04-30T12:53:23;6.50;;;3.77;;
6424;SDS011;12193;42.642;23.384;2023-04-30T12:58:40;4.33;;;3.50;;
6424;SDS011;12193;42.642;23.384;2023-04-30T13:01:10;4.40;;;3.67;;
6424;SDS011;12193;42.642;23.384;2023-04-30T13:03:40;4.80;;;3.73;;
6424;SDS011;12193;42.642;23.384;2023-04-30T13:06:09;7.53;;;3.80;;
6424;SDS011;12193;42.642;23.384;2023-04-30T13:08:42;5.93;;;3.57;;
6424;SDS011;12193;42.642;23.384;2023-04-30T13:11:12;4.70;;;3.80;;
6424;SDS011;12193;42.642;23.384;2023-04-30T13:13:42;4.47;;;3.53;;
6424;SDS011;12193;42.642;23.384;2023-04-30T13:16:11;4.10;;;3.50;;
6424;SDS011;12193;42.642;23.384;2023-04-30T13:18:41;5.30;;;2.90;;
6424;SDS011;12193;42.642;23.384;2023-04-30T13:21:11;5.07;;;3.60;;
6424;SDS011;12193;42.642;23.384;2023-04-30T13:23:43;5.67;;;3.50;;
6424;SDS011;12193;42.642;23.384;2023-04-30T13:26:12;4.63;;;3.47;;
6424;SDS011;12193;42.642;23.384;2023-04-30T13:28:41;5.33;;;3.70;;
6424;SDS011;12193;42.642;23.384;2023-04-30T13:31:10;4.33;;;3.57;;
6424;SDS011;12193;42.642;23.384;2023-04-30T13:33:40;4.27;;;3.50;;
6424;SDS011;12193;42.642;23.384;2023-04-30T13:36:09;4.53;;;3.40;;
6424;SDS011;12193;42.642;23.384;2023-04-30T13:38:38;5.80;;;3.70;;
6424;SDS011;12193;42.642;23.384;2023-04-30T13:41:11;4.80;;;3.50;;
6424;SDS011;12193;42.642;23.384;2023-04-30T13:43:40;5.70;;;3.83;;
6424;SDS011;12193;42.642;23.384;2023-04-30T13:46:11;3.70;;;3.30;;
6424;SDS011;12193;42.642;23.384;2023-04-30T13:48:41;4.73;;;3.50;;
6424;SDS011;12193;42.642;23.384;2023-04-30T13:51:13;4.33;;;3.60;;
6424;SDS011;12193;42.642;23.384;2023-04-30T13:53:42;5.90;;;3.30;;
6424;SDS011;12193;42.642;23.384;2023-04-30T13:56:14;4.57;;;3.60;;
6424;SDS011;12193;42.642;23.384;2023-04-30T13:58:44;4.77;;;4.03;;
6424;SDS011;12193;42.642;23.384;2023-04-30T14:01:14;4.90;;;3.53;;
6424;SDS011;12193;42.642;23.384;2023-04-30T14:03:43;4.47;;;3.27;;
6424;SDS011;12193;42.642;23.384;2023-04-30T14:06:13;5.93;;;3.33;;
6424;SDS011;12193;42.642;23.384;2023-04-30T14:08:43;4.80;;;3.60;;
6424;SDS011;12193;42.642;23.384;2023-04-30T14:11:15;4.00;;;3.30;;
6424;SDS011;12193;42.642;23.384;2023-04-30T14:13:44;5.47;;;3.43;;
6424;SDS011;12193;42.642;23.384;2023-04-30T14:16:14;4.40;;;3.47;;
6424;SDS011;12193;42.642;23.384;2023-04-30T14:18:44;4.93;;;3.73;;
6424;SDS011;12193;42.642;23.384;2023-04-30T14:21:13;6.77;;;3.40;;
6424;SDS011;12193;42.642;23.384;2023-04-30T14:23:42;4.23;;;3.70;;
6424;SDS011;12193;42.642;23.384;2023-04-30T14:26:15;4.70;;;3.43;;
6424;SDS011;12193;42.642;23.384;2023-04-30T14:28:46;6.77;;;3.47;;
6424;SDS011;12193;42.642;23.384;2023-04-30T14:31:15;3.80;;;3.40;;
6424;SDS011;12193;42.642;23.384;2023-04-30T14:33:45;4.77;;;3.53;;
6424;SDS011;12193;42.642;23.384;2023-04-30T14:36:14;4.70;;;3.67;;
6424;SDS011;12193;42.642;23.384;2023-04-30T14:38:43;5.60;;;3.43;;
6424;SDS011;12193;42.642;23.384;2023-04-30T14:41:15;5.87;;;3.80;;
6424;SDS011;12193;42.642;23.384;2023-04-30T14:43:45;4.63;;;3.67;;
6424;SDS011;12193;42.642;23.384;2023-04-30T14:46:15;4.87;;;3.47;;
6424;SDS011;12193;42.642;23.384;2023-04-30T14:48:44;6.40;;;2.97;;
6424;SDS011;12193;42.642;23.384;2023-04-30T14:51:14;6.30;;;3.33;;
6424;SDS011;12193;42.642;23.384;2023-04-30T14:53:43;5.30;;;3.50;;
6424;SDS011;12193;42.642;23.384;2023-04-30T14:56:15;4.97;;;3.50;;
6424;SDS011;12193;42.642;23.384;2023-04-30T14:58:45;7.73;;;3.50;;
6424;SDS011;12193;42.642;23.384;2023-04-30T15:01:14;3.90;;;3.50;;
6424;SDS011;12193;42.642;23.384;2023-04-30T15:03:43;5.07;;;3.70;;
6424;SDS011;12193;42.642;23.384;2023-04-30T15:06:12;5.13;;;3.20;;
6424;SDS011;12193;42.642;23.384;2023-04-30T15:08:42;4.70;;;3.80;;
6424;SDS011;12193;42.642;23.384;2023-04-30T15:11:11;5.10;;;3.57;;
6424;SDS011;12193;42.642;23.384;2023-04-30T15:13:44;4.47;;;3.47;;
6424;SDS011;12193;42.642;23.384;2023-04-30T15:16:14;5.10;;;3.50;;
6424;SDS011;12193;42.642;23.384;2023-04-30T15:18:44;4.67;;;3.40;;
6424;SDS011;12193;42.642;23.384;2023-04-30T15:21:14;4.03;;;3.40;;
6424;SDS011;12193;42.642;23.384;2023-04-30T15:23:43;4.17;;;2.90;;
6424;SDS011;12193;42.642;23.384;2023-04-30T15:26:12;3.97;;;3.30;;
6424;SDS011;12193;42.642;23.384;2023-04-30T15:28:44;4.63;;;3.40;;
6424;SDS011;12193;42.642;23.384;2023-04-30T15:31:14;3.77;;;3.07;;
6424;SDS011;12193;42.642;23.384;2023-04-30T15:33:43;5.60;;;3.13;;
6424;SDS011;12193;42.642;23.384;2023-04-30T15:36:12;5.13;;;3.10;;
6424;SDS011;12193;42.642;23.384;2023-04-30T15:38:42;4.77;;;3.27;;
6424;SDS011;12193;42.642;23.384;2023-04-30T15:41:11;3.87;;;3.30;;
6424;SDS011;12193;42.642;23.384;2023-04-30T15:43:40;3.87;;;3.00;;
6424;SDS011;12193;42.642;23.384;2023-04-30T15:46:12;3.80;;;3.40;;
6424;SDS011;12193;42.642;23.384;2023-04-30T15:48:42;5.33;;;3.27;;
6424;SDS011;12193;42.642;23.384;2023-04-30T15:51:11;4.67;;;3.10;;
6424;SDS011;12193;42.642;23.384;2023-04-30T15:53:40;5.10;;;3.30;;
6424;SDS011;12193;42.642;23.384;2023-04-30T15:56:10;6.50;;;3.87;;
6424;SDS011;12193;42.642;23.384;2023-04-30T15:58:39;6.00;;;3.57;;
6424;SDS011;12193;42.642;23.384;2023-04-30T16:01:08;4.70;;;3.60;;
6424;SDS011;12193;42.642;23.384;2023-04-30T16:03:41;4.17;;;3.60;;
6424;SDS011;12193;42.642;23.384;2023-04-30T16:06:10;6.20;;;3.57;;
6424;SDS011;12193;42.642;23.384;2023-04-30T16:08:40;5.93;;;3.57;;
6424;SDS011;12193;42.642;23.384;2023-04-30T16:11:10;7.33;;;4.37;;
6424;SDS011;12193;42.642;23.384;2023-04-30T16:13:40;6.17;;;3.50;;
6424;SDS011;12193;42.642;23.384;2023-04-30T16:16:12;4.33;;;3.43;;
6424;SDS011;12193;42.642;23.384;2023-04-30T16:18:42;4.83;;;3.63;;
6424;SDS011;12193;42.642;23.384;2023-04-30T16:21:11;6.03;;;3.50;;
6424;SDS011;12193;42.642;23.384;2023-04-30T16:23:41;5.93;;;4.10;;
6424;SDS011;12193;42.642;23.384;2023-04-30T16:26:10;4.27;;;3.40;;
6424;SDS011;12193;42.642;23.384;2023-04-30T16:28:40;9.50;;;3.40;;
6424;SDS011;12193;42.642;23.384;2023-04-30T16:31:12;4.73;;;3.33;;
6424;SDS011;12193;42.642;23.384;2023-04-30T16:33:42;5.50;;;3.73;;
6424;SDS011;12193;42.642;23.384;2023-04-30T16:36:12;4.17;;;3.23;;
6424;SDS011;12193;42.642;23.384;2023-04-30T16:38:41;5.77;;;3.60;;
6424;SDS011;12193;42.642;23.384;2023-04-30T16:41:12;5.60;;;3.60;;
6424;SDS011;12193;42.642;23.384;2023-04-30T16:43:43;6.43;;;3.67;;
6424;SDS011;12193;42.642;23.384;2023-04-30T16:46:15;6.20;;;3.93;;
6424;SDS011;12193;42.642;23.384;2023-04-30T16:48:44;7.50;;;3.67;;
6424;SDS011;12193;42.642;23.384;2023-04-30T16:51:14;4.73;;;3.50;;
6424;SDS011;12193;42.642;23.384;2023-04-30T16:53:43;5.27;;;3.57;;
6424;SDS011;12193;42.642;23.384;2023-04-30T16:56:12;6.77;;;4.00;;
6424;SDS011;12193;42.642;23.384;2023-04-30T16:58:42;5.20;;;3.33;;
6424;SDS011;12193;42.642;23.384;2023-04-30T17:01:11;4.87;;;3.30;;
6424;SDS011;12193;42.642;23.384;2023-04-30T17:03:43;7.80;;;5.30;;
6424;SDS011;12193;42.642;23.384;2023-04-30T17:06:13;4.70;;;3.90;;
6424;SDS011;12193;42.642;23.384;2023-04-30T17:08:43;5.13;;;3.80;;
6424;SDS011;12193;42.642;23.384;2023-04-30T17:11:12;4.97;;;4.00;;
6424;SDS011;12193;42.642;23.384;2023-04-30T17:13:45;6.40;;;4.03;;
6424;SDS011;12193;42.642;23.384;2023-04-30T17:16:14;4.30;;;3.43;;
6424;SDS011;12193;42.642;23.384;2023-04-30T17:18:46;5.03;;;3.53;;
6424;SDS011;12193;42.642;23.384;2023-04-30T17:21:16;5.90;;;3.50;;
6424;SDS011;12193;42.642;23.384;2023-04-30T17:23:46;5.73;;;3.40;;
6424;SDS011;12193;42.642;23.384;2023-04-30T17:26:15;4.67;;;3.40;;
6424;SDS011;12193;42.642;23.384;2023-04-30T17:28:45;5.53;;;3.70;;
6424;SDS011;12193;42.642;23.384;2023-04-30T17:31:14;7.57;;;4.53;;
6424;SDS011;12193;42.642;23.384;2023-04-30T17:33:44;6.83;;;3.60;;
6424;SDS011;12193;42.642;23.384;2023-04-30T17:36:16;8.43;;;4.17;;
6424;SDS011;12193;42.642;23.384;2023-04-30T17:38:46;9.10;;;4.10;;
6424;SDS011;12193;42.642;23.384;2023-04-30T17:41:16;5.37;;;3.63;;
6424;SDS011;12193;42.642;23.384;2023-04-30T17:43:46;4.47;;;3.87;;
6424;SDS011;12193;42.642;23.384;2023-04-30T17:46:15;7.13;;;4.00;;
6424;SDS011;12193;42.642;23.384;2023-04-30T17:48:47;7.37;;;4.40;;
6424;SDS011;12193;42.642;23.384;2023-04-30T17:51:16;9.17;;;5.43;;
6424;SDS011;12193;42.642;23.384;2023-04-30T17:53:46;7.57;;;5.03;;
6424;SDS011;12193;42.642;23.384;2023-04-30T17:56:15;7.30;;;4.33;;